sensor_id;sensor_type;location;lat;lon;timestamp;temperature;humidity
27922;DHT22;15261;50.356;10.340;2022-10-31T00:01:28;9.50;99.90
27922;DHT22;15261;50.356;10.340;2022-10-31T00:03:54;9.50;99.90
27922;DHT22;15261;50.356;10.340;2022-10-31T00:06:24;9.60;99.90
27922;DHT22;15261;50.356;10.340;2022-10-31T00:08:54;9.60;99.90
27922;DHT22;15261;50.356;10.340;2022-10-31T00:14:42;9.60;99.90
27922;DHT22;15261;50.356;10.340;2022-10-31T00:17:08;9.60;99.90
27922;DHT22;15261;50.356;10.340;2022-10-31T00:19:33;9.60;99.90
27922;DHT22;15261;50.356;10.340;2022-10-31T00:21:59;9.60;99.90
27922;DHT22;15261;50.356;10.340;2022-10-31T00:24:24;9.70;99.90
27922;DHT22;15261;50.356;10.340;2022-10-31T00:26:50;9.70;99.90
27922;DHT22;15261;50.356;10.340;2022-10-31T00:29:15;9.80;99.90
27922;DHT22;15261;50.356;10.340;2022-10-31T00:31:41;9.70;99.90
27922;DHT22;15261;50.356;10.340;2022-10-31T00:34:07;9.60;99.90
27922;DHT22;15261;50.356;10.340;2022-10-31T00:36:32;9.60;99.90
27922;DHT22;15261;50.356;10.340;2022-10-31T00:38:58;9.80;99.90
27922;DHT22;15261;50.356;10.340;2022-10-31T00:41:24;9.80;99.90
27922;DHT22;15261;50.356;10.340;2022-10-31T00:43:49;9.60;99.90
27922;DHT22;15261;50.356;10.340;2022-10-31T00:46:15;9.60;99.90
27922;DHT22;15261;50.356;10.340;2022-10-31T00:48:41;9.70;99.90
27922;DHT22;15261;50.356;10.340;2022-10-31T00:51:07;9.70;99.90
27922;DHT22;15261;50.356;10.340;2022-10-31T00:53:33;9.70;99.90
27922;DHT22;15261;50.356;10.340;2022-10-31T00:55:59;9.70;99.90
27922;DHT22;15261;50.356;10.340;2022-10-31T00:58:25;9.60;99.90
27922;DHT22;15261;50.356;10.340;2022-10-31T01:00:50;9.50;99.90
27922;DHT22;15261;50.356;10.340;2022-10-31T01:03:27;9.50;99.90
27922;DHT22;15261;50.356;10.340;2022-10-31T01:05:58;9.60;99.90
27922;DHT22;15261;50.356;10.340;2022-10-31T01:08:24;9.70;99.90
27922;DHT22;15261;50.356;10.340;2022-10-31T01:13:28;9.60;99.90
27922;DHT22;15261;50.356;10.340;2022-10-31T01:15:55;9.50;99.90
27922;DHT22;15261;50.356;10.340;2022-10-31T01:18:21;9.40;99.90
27922;DHT22;15261;50.356;10.340;2022-10-31T01:20:46;9.50;99.90
27922;DHT22;15261;50.356;10.340;2022-10-31T01:23:12;9.50;99.90
27922;DHT22;15261;50.356;10.340;2022-10-31T01:25:37;9.40;99.90
27922;DHT22;15261;50.356;10.340;2022-10-31T01:28:03;9.30;99.90
27922;DHT22;15261;50.356;10.340;2022-10-31T01:30:29;9.10;99.90
27922;DHT22;15261;50.356;10.340;2022-10-31T01:32:54;9.00;99.90
27922;DHT22;15261;50.356;10.340;2022-10-31T01:35:20;9.00;99.90
27922;DHT22;15261;50.356;10.340;2022-10-31T01:37:45;9.10;99.90
27922;DHT22;15261;50.356;10.340;2022-10-31T01:40:11;9.00;99.90
27922;DHT22;15261;50.356;10.340;2022-10-31T01:42:36;9.10;99.90
27922;DHT22;15261;50.356;10.340;2022-10-31T01:45:03;9.10;99.90
27922;DHT22;15261;50.356;10.340;2022-10-31T01:47:43;9.00;99.90
27922;DHT22;15261;50.356;10.340;2022-10-31T01:50:26;9.00;99.90
27922;DHT22;15261;50.356;10.340;2022-10-31T01:52:53;9.10;99.90
27922;DHT22;15261;50.356;10.340;2022-10-31T01:55:34;9.10;99.90
27922;DHT22;15261;50.356;10.340;2022-10-31T01:58:06;9.20;99.90
27922;DHT22;15261;50.356;10.340;2022-10-31T02:00:32;9.20;99.90
27922;DHT22;15261;50.356;10.340;2022-10-31T02:02:58;9.30;99.90
27922;DHT22;15261;50.356;10.340;2022-10-31T02:05:27;9.40;99.90
27922;DHT22;15261;50.356;10.340;2022-10-31T02:08:07;9.40;99.90
27922;DHT22;15261;50.356;10.340;2022-10-31T02:10:36;9.40;99.90
27922;DHT22;15261;50.356;10.340;2022-10-31T02:13:04;9.40;99.90
27922;DHT22;15261;50.356;10.340;2022-10-31T02:15:31;9.50;99.90
27922;DHT22;15261;50.356;10.340;2022-10-31T02:17:57;9.60;99.90
27922;DHT22;15261;50.356;10.340;2022-10-31T02:20:24;9.60;99.90
27922;DHT22;15261;50.356;10.340;2022-10-31T02:34:22;9.10;99.90
27922;DHT22;15261;50.356;10.340;2022-10-31T02:37:30;9.20;99.90
27922;DHT22;15261;50.356;10.340;2022-10-31T02:40:23;9.10;99.90
27922;DHT22;15261;50.356;10.340;2022-10-31T02:43:05;9.00;99.90
27922;DHT22;15261;50.356;10.340;2022-10-31T02:48:22;9.20;99.90
27922;DHT22;15261;50.356;10.340;2022-10-31T02:50:55;9.20;99.90
27922;DHT22;15261;50.356;10.340;2022-10-31T02:53:21;9.00;99.90
27922;DHT22;15261;50.356;10.340;2022-10-31T02:56:04;9.00;99.90
27922;DHT22;15261;50.356;10.340;2022-10-31T02:58:35;8.90;99.90
27922;DHT22;15261;50.356;10.340;2022-10-31T03:15:45;8.90;99.90
27922;DHT22;15261;50.356;10.340;2022-10-31T03:23:24;8.90;99.90
27922;DHT22;15261;50.356;10.340;2022-10-31T03:25:52;8.90;99.90
27922;DHT22;15261;50.356;10.340;2022-10-31T03:28:23;8.90;99.90
27922;DHT22;15261;50.356;10.340;2022-10-31T03:30:52;8.90;99.90
27922;DHT22;15261;50.356;10.340;2022-10-31T03:33:22;8.80;99.90
27922;DHT22;15261;50.356;10.340;2022-10-31T03:35:52;8.80;99.90
27922;DHT22;15261;50.356;10.340;2022-10-31T03:38:20;8.80;99.90
27922;DHT22;15261;50.356;10.340;2022-10-31T03:40:47;8.80;99.90
27922;DHT22;15261;50.356;10.340;2022-10-31T03:43:19;8.80;99.90
27922;DHT22;15261;50.356;10.340;2022-10-31T03:45:47;8.90;99.90
27922;DHT22;15261;50.356;10.340;2022-10-31T03:48:14;8.90;99.90
27922;DHT22;15261;50.356;10.340;2022-10-31T03:50:59;8.90;99.90
27922;DHT22;15261;50.356;10.340;2022-10-31T03:53:38;8.90;99.90
27922;DHT22;15261;50.356;10.340;2022-10-31T03:56:29;8.90;99.90
27922;DHT22;15261;50.356;10.340;2022-10-31T04:01:31;8.50;99.90
27922;DHT22;15261;50.356;10.340;2022-10-31T04:03:58;8.50;99.90
27922;DHT22;15261;50.356;10.340;2022-10-31T04:06:24;8.50;99.90
27922;DHT22;15261;50.356;10.340;2022-10-31T04:08:53;8.40;99.90
27922;DHT22;15261;50.356;10.340;2022-10-31T04:11:24;8.40;99.90
27922;DHT22;15261;50.356;10.340;2022-10-31T04:13:51;8.40;99.90
27922;DHT22;15261;50.356;10.340;2022-10-31T04:16:18;8.30;99.90
27922;DHT22;15261;50.356;10.340;2022-10-31T04:18:45;8.20;99.90
27922;DHT22;15261;50.356;10.340;2022-10-31T04:24:32;8.10;99.90
27922;DHT22;15261;50.356;10.340;2022-10-31T04:26:58;8.10;99.90
27922;DHT22;15261;50.356;10.340;2022-10-31T04:29:23;8.10;99.90
27922;DHT22;15261;50.356;10.340;2022-10-31T04:31:49;8.20;99.90
27922;DHT22;15261;50.356;10.340;2022-10-31T04:34:15;8.30;99.90
27922;DHT22;15261;50.356;10.340;2022-10-31T04:36:41;8.30;99.90
27922;DHT22;15261;50.356;10.340;2022-10-31T04:39:07;8.40;99.90
27922;DHT22;15261;50.356;10.340;2022-10-31T04:41:33;8.30;99.90
27922;DHT22;15261;50.356;10.340;2022-10-31T04:43:58;8.40;99.90
27922;DHT22;15261;50.356;10.340;2022-10-31T04:46:24;8.50;99.90
27922;DHT22;15261;50.356;10.340;2022-10-31T04:48:49;8.50;99.90
27922;DHT22;15261;50.356;10.340;2022-10-31T04:51:15;8.50;99.90
27922;DHT22;15261;50.356;10.340;2022-10-31T04:53:40;8.50;99.90
27922;DHT22;15261;50.356;10.340;2022-10-31T04:56:06;8.60;99.90
27922;DHT22;15261;50.356;10.340;2022-10-31T04:58:32;8.50;99.90
27922;DHT22;15261;50.356;10.340;2022-10-31T05:00:57;8.50;99.90
27922;DHT22;15261;50.356;10.340;2022-10-31T05:03:23;8.60;99.90
27922;DHT22;15261;50.356;10.340;2022-10-31T05:05:49;8.70;99.90
27922;DHT22;15261;50.356;10.340;2022-10-31T05:08:15;8.70;99.90
27922;DHT22;15261;50.356;10.340;2022-10-31T05:10:40;8.70;99.90
27922;DHT22;15261;50.356;10.340;2022-10-31T05:13:06;8.70;99.90
27922;DHT22;15261;50.356;10.340;2022-10-31T05:15:31;8.80;99.90
27922;DHT22;15261;50.356;10.340;2022-10-31T05:17:57;8.80;99.90
27922;DHT22;15261;50.356;10.340;2022-10-31T05:20:26;8.70;99.90
27922;DHT22;15261;50.356;10.340;2022-10-31T05:22:54;8.60;99.90
27922;DHT22;15261;50.356;10.340;2022-10-31T05:25:22;8.50;99.90
27922;DHT22;15261;50.356;10.340;2022-10-31T05:27:49;8.60;99.90
27922;DHT22;15261;50.356;10.340;2022-10-31T05:30:18;8.40;99.90
27922;DHT22;15261;50.356;10.340;2022-10-31T05:32:46;8.40;99.90
27922;DHT22;15261;50.356;10.340;2022-10-31T05:35:14;8.40;99.90
27922;DHT22;15261;50.356;10.340;2022-10-31T05:37:41;8.40;99.90
27922;DHT22;15261;50.356;10.340;2022-10-31T05:43:42;8.50;99.90
27922;DHT22;15261;50.356;10.340;2022-10-31T05:46:07;8.40;99.90
27922;DHT22;15261;50.356;10.340;2022-10-31T05:48:33;8.50;99.90
27922;DHT22;15261;50.356;10.340;2022-10-31T05:50:58;8.40;99.90
27922;DHT22;15261;50.356;10.340;2022-10-31T05:53:24;8.40;99.90
27922;DHT22;15261;50.356;10.340;2022-10-31T05:55:49;8.50;99.90
27922;DHT22;15261;50.356;10.340;2022-10-31T05:58:15;8.50;99.90
27922;DHT22;15261;50.356;10.340;2022-10-31T06:00:40;8.50;99.90
27922;DHT22;15261;50.356;10.340;2022-10-31T06:03:08;8.70;99.90
27922;DHT22;15261;50.356;10.340;2022-10-31T06:05:34;8.70;99.90
27922;DHT22;15261;50.356;10.340;2022-10-31T06:07:59;8.70;99.90
27922;DHT22;15261;50.356;10.340;2022-10-31T06:10:25;8.80;99.90
27922;DHT22;15261;50.356;10.340;2022-10-31T06:12:52;8.80;99.90
27922;DHT22;15261;50.356;10.340;2022-10-31T06:15:18;8.90;99.90
27922;DHT22;15261;50.356;10.340;2022-10-31T06:17:43;8.70;99.90
27922;DHT22;15261;50.356;10.340;2022-10-31T06:20:09;8.80;99.90
27922;DHT22;15261;50.356;10.340;2022-10-31T06:22:35;9.00;99.90
27922;DHT22;15261;50.356;10.340;2022-10-31T06:25:01;9.10;99.90
27922;DHT22;15261;50.356;10.340;2022-10-31T06:27:27;8.90;99.90
27922;DHT22;15261;50.356;10.340;2022-10-31T06:30:04;8.90;99.90
27922;DHT22;15261;50.356;10.340;2022-10-31T06:32:29;8.80;99.90
27922;DHT22;15261;50.356;10.340;2022-10-31T06:34:55;9.00;99.90
27922;DHT22;15261;50.356;10.340;2022-10-31T06:37:20;9.10;99.90
27922;DHT22;15261;50.356;10.340;2022-10-31T06:39:46;9.20;99.90
27922;DHT22;15261;50.356;10.340;2022-10-31T06:42:11;9.20;99.90
27922;DHT22;15261;50.356;10.340;2022-10-31T06:44:38;9.20;99.90
27922;DHT22;15261;50.356;10.340;2022-10-31T06:47:08;9.30;99.90
27922;DHT22;15261;50.356;10.340;2022-10-31T06:49:33;9.50;99.90
27922;DHT22;15261;50.356;10.340;2022-10-31T06:52:27;9.50;99.90
27922;DHT22;15261;50.356;10.340;2022-10-31T06:54:52;9.30;99.90
27922;DHT22;15261;50.356;10.340;2022-10-31T06:57:18;9.40;99.90
27922;DHT22;15261;50.356;10.340;2022-10-31T07:02:41;9.50;99.90
27922;DHT22;15261;50.356;10.340;2022-10-31T07:05:07;9.60;99.90
27922;DHT22;15261;50.356;10.340;2022-10-31T07:07:39;9.60;99.90
27922;DHT22;15261;50.356;10.340;2022-10-31T07:10:06;9.60;99.90
27922;DHT22;15261;50.356;10.340;2022-10-31T07:12:31;9.50;99.90
27922;DHT22;15261;50.356;10.340;2022-10-31T07:15:06;9.50;99.90
27922;DHT22;15261;50.356;10.340;2022-10-31T07:17:48;9.40;99.90
27922;DHT22;15261;50.356;10.340;2022-10-31T07:20:15;9.40;99.90
27922;DHT22;15261;50.356;10.340;2022-10-31T07:22:40;9.30;99.90
27922;DHT22;15261;50.356;10.340;2022-10-31T07:25:06;9.30;99.90
27922;DHT22;15261;50.356;10.340;2022-10-31T07:27:41;9.30;99.90
27922;DHT22;15261;50.356;10.340;2022-10-31T07:30:09;9.40;99.90
27922;DHT22;15261;50.356;10.340;2022-10-31T07:32:42;9.40;99.90
27922;DHT22;15261;50.356;10.340;2022-10-31T07:35:27;9.40;99.90
27922;DHT22;15261;50.356;10.340;2022-10-31T07:37:53;9.60;99.90
27922;DHT22;15261;50.356;10.340;2022-10-31T07:47:10;10.10;99.90
27922;DHT22;15261;50.356;10.340;2022-10-31T07:50:12;10.30;99.90
27922;DHT22;15261;50.356;10.340;2022-10-31T07:55:54;10.40;99.90
27922;DHT22;15261;50.356;10.340;2022-10-31T07:58:19;10.30;99.90
27922;DHT22;15261;50.356;10.340;2022-10-31T08:00:46;10.40;99.90
27922;DHT22;15261;50.356;10.340;2022-10-31T08:03:19;10.60;99.90
27922;DHT22;15261;50.356;10.340;2022-10-31T08:05:45;10.80;99.90
27922;DHT22;15261;50.356;10.340;2022-10-31T08:08:12;10.70;99.90
27922;DHT22;15261;50.356;10.340;2022-10-31T08:14:00;10.80;99.90
27922;DHT22;15261;50.356;10.340;2022-10-31T08:16:26;10.90;99.90
27922;DHT22;15261;50.356;10.340;2022-10-31T08:18:52;11.00;99.90
27922;DHT22;15261;50.356;10.340;2022-10-31T08:21:20;11.10;99.90
27922;DHT22;15261;50.356;10.340;2022-10-31T08:23:46;11.20;99.90
27922;DHT22;15261;50.356;10.340;2022-10-31T08:26:12;11.20;99.90
27922;DHT22;15261;50.356;10.340;2022-10-31T08:28:37;11.20;99.90
27922;DHT22;15261;50.356;10.340;2022-10-31T08:31:03;11.30;99.90
27922;DHT22;15261;50.356;10.340;2022-10-31T08:33:28;11.40;99.90
27922;DHT22;15261;50.356;10.340;2022-10-31T08:35:54;11.40;99.90
27922;DHT22;15261;50.356;10.340;2022-10-31T08:38:19;11.50;99.90
27922;DHT22;15261;50.356;10.340;2022-10-31T08:40:48;11.70;99.90
27922;DHT22;15261;50.356;10.340;2022-10-31T08:43:16;11.80;99.90
27922;DHT22;15261;50.356;10.340;2022-10-31T08:45:42;11.90;99.90
27922;DHT22;15261;50.356;10.340;2022-10-31T08:48:13;11.90;99.90
27922;DHT22;15261;50.356;10.340;2022-10-31T08:50:39;12.00;99.90
27922;DHT22;15261;50.356;10.340;2022-10-31T08:53:17;12.00;99.90
27922;DHT22;15261;50.356;10.340;2022-10-31T08:55:44;12.00;99.90
27922;DHT22;15261;50.356;10.340;2022-10-31T08:58:12;12.00;99.90
27922;DHT22;15261;50.356;10.340;2022-10-31T09:00:38;12.10;99.90
27922;DHT22;15261;50.356;10.340;2022-10-31T09:03:08;12.20;99.90
27922;DHT22;15261;50.356;10.340;2022-10-31T09:05:34;12.30;99.90
27922;DHT22;15261;50.356;10.340;2022-10-31T09:08:01;12.40;99.90
27922;DHT22;15261;50.356;10.340;2022-10-31T09:10:28;12.50;99.90
27922;DHT22;15261;50.356;10.340;2022-10-31T09:13:11;12.50;99.90
27922;DHT22;15261;50.356;10.340;2022-10-31T09:15:39;12.50;99.90
27922;DHT22;15261;50.356;10.340;2022-10-31T09:18:06;12.60;99.90
27922;DHT22;15261;50.356;10.340;2022-10-31T09:20:33;12.60;99.90
27922;DHT22;15261;50.356;10.340;2022-10-31T09:23:01;12.60;99.90
27922;DHT22;15261;50.356;10.340;2022-10-31T09:25:27;12.70;99.90
27922;DHT22;15261;50.356;10.340;2022-10-31T09:27:57;12.70;99.90
27922;DHT22;15261;50.356;10.340;2022-10-31T09:30:23;12.70;99.90
27922;DHT22;15261;50.356;10.340;2022-10-31T09:33:26;12.80;99.90
27922;DHT22;15261;50.356;10.340;2022-10-31T09:35:51;12.80;99.90
27922;DHT22;15261;50.356;10.340;2022-10-31T09:38:19;12.90;99.90
27922;DHT22;15261;50.356;10.340;2022-10-31T09:40:54;13.00;99.90
27922;DHT22;15261;50.356;10.340;2022-10-31T09:43:43;13.00;99.90
27922;DHT22;15261;50.356;10.340;2022-10-31T09:49:55;13.00;99.90
27922;DHT22;15261;50.356;10.340;2022-10-31T09:52:33;13.10;99.90
27922;DHT22;15261;50.356;10.340;2022-10-31T09:55:15;13.10;99.90
27922;DHT22;15261;50.356;10.340;2022-10-31T09:57:42;13.20;99.90
27922;DHT22;15261;50.356;10.340;2022-10-31T10:00:19;13.20;99.90
27922;DHT22;15261;50.356;10.340;2022-10-31T10:02:57;13.20;99.90
27922;DHT22;15261;50.356;10.340;2022-10-31T10:08:53;13.30;99.90
27922;DHT22;15261;50.356;10.340;2022-10-31T10:14:35;13.30;99.90
27922;DHT22;15261;50.356;10.340;2022-10-31T10:25:24;13.60;99.90
27922;DHT22;15261;50.356;10.340;2022-10-31T10:28:20;13.80;99.90
27922;DHT22;15261;50.356;10.340;2022-10-31T10:31:07;13.90;99.90
27922;DHT22;15261;50.356;10.340;2022-10-31T10:36:33;14.10;99.90
27922;DHT22;15261;50.356;10.340;2022-10-31T10:39:39;14.10;99.90
27922;DHT22;15261;50.356;10.340;2022-10-31T10:42:14;14.20;99.90
27922;DHT22;15261;50.356;10.340;2022-10-31T10:44:59;14.20;99.90
27922;DHT22;15261;50.356;10.340;2022-10-31T10:51:05;14.30;99.90
27922;DHT22;15261;50.356;10.340;2022-10-31T10:53:49;14.30;99.90
27922;DHT22;15261;50.356;10.340;2022-10-31T10:56:46;14.40;99.90
27922;DHT22;15261;50.356;10.340;2022-10-31T11:09:15;14.40;99.90
27922;DHT22;15261;50.356;10.340;2022-10-31T11:11:41;14.50;99.90
27922;DHT22;15261;50.356;10.340;2022-10-31T11:17:39;14.60;99.90
27922;DHT22;15261;50.356;10.340;2022-10-31T11:20:37;14.70;99.90
27922;DHT22;15261;50.356;10.340;2022-10-31T11:23:23;14.80;99.90
27922;DHT22;15261;50.356;10.340;2022-10-31T11:28:58;15.00;99.90
27922;DHT22;15261;50.356;10.340;2022-10-31T11:31:35;15.10;99.90
27922;DHT22;15261;50.356;10.340;2022-10-31T11:34:03;15.30;99.90
27922;DHT22;15261;50.356;10.340;2022-10-31T11:36:32;15.40;99.90
27922;DHT22;15261;50.356;10.340;2022-10-31T11:39:00;15.50;99.90
27922;DHT22;15261;50.356;10.340;2022-10-31T11:41:36;15.60;99.90
27922;DHT22;15261;50.356;10.340;2022-10-31T11:44:15;15.70;99.90
27922;DHT22;15261;50.356;10.340;2022-10-31T11:46:46;15.70;99.90
27922;DHT22;15261;50.356;10.340;2022-10-31T11:51:56;15.90;99.90
27922;DHT22;15261;50.356;10.340;2022-10-31T12:01:02;16.10;99.90
27922;DHT22;15261;50.356;10.340;2022-10-31T12:07:00;16.30;99.90
27922;DHT22;15261;50.356;10.340;2022-10-31T12:09:39;16.30;99.90
27922;DHT22;15261;50.356;10.340;2022-10-31T12:35:56;16.30;99.90
27922;DHT22;15261;50.356;10.340;2022-10-31T12:50:43;16.00;99.90
27922;DHT22;15261;50.356;10.340;2022-10-31T13:01:55;16.10;99.90
27922;DHT22;15261;50.356;10.340;2022-10-31T13:08:05;16.10;99.90
27922;DHT22;15261;50.356;10.340;2022-10-31T13:13:40;16.20;99.90
27922;DHT22;15261;50.356;10.340;2022-10-31T13:16:24;16.10;99.90
27922;DHT22;15261;50.356;10.340;2022-10-31T13:19:00;16.20;99.90
27922;DHT22;15261;50.356;10.340;2022-10-31T13:21:42;16.20;99.90
27922;DHT22;15261;50.356;10.340;2022-10-31T13:24:16;16.20;99.90
27922;DHT22;15261;50.356;10.340;2022-10-31T13:26:53;16.20;99.90
27922;DHT22;15261;50.356;10.340;2022-10-31T13:31:48;16.10;99.90
27922;DHT22;15261;50.356;10.340;2022-10-31T13:37:02;16.30;99.90
27922;DHT22;15261;50.356;10.340;2022-10-31T13:54:23;16.40;99.90
27922;DHT22;15261;50.356;10.340;2022-10-31T13:56:50;16.40;99.90
27922;DHT22;15261;50.356;10.340;2022-10-31T13:59:46;16.30;99.90
27922;DHT22;15261;50.356;10.340;2022-10-31T14:02:15;16.30;99.90
27922;DHT22;15261;50.356;10.340;2022-10-31T14:04:59;16.20;99.90
27922;DHT22;15261;50.356;10.340;2022-10-31T14:07:27;16.10;99.90
27922;DHT22;15261;50.356;10.340;2022-10-31T14:10:20;16.10;99.90
27922;DHT22;15261;50.356;10.340;2022-10-31T14:16:25;16.00;99.90
27922;DHT22;15261;50.356;10.340;2022-10-31T14:19:05;15.90;99.90
27922;DHT22;15261;50.356;10.340;2022-10-31T14:21:50;15.90;99.90
27922;DHT22;15261;50.356;10.340;2022-10-31T14:29:23;15.70;99.90
27922;DHT22;15261;50.356;10.340;2022-10-31T14:31:57;15.70;99.90
27922;DHT22;15261;50.356;10.340;2022-10-31T14:34:35;15.70;99.90
27922;DHT22;15261;50.356;10.340;2022-10-31T14:37:27;15.60;99.90
27922;DHT22;15261;50.356;10.340;2022-10-31T14:40:20;15.60;99.90
27922;DHT22;15261;50.356;10.340;2022-10-31T14:50:49;15.40;99.90
27922;DHT22;15261;50.356;10.340;2022-10-31T14:53:26;15.40;99.90
27922;DHT22;15261;50.356;10.340;2022-10-31T14:56:02;15.30;99.90
27922;DHT22;15261;50.356;10.340;2022-10-31T14:58:45;15.20;99.90
27922;DHT22;15261;50.356;10.340;2022-10-31T15:01:32;15.20;99.90
27922;DHT22;15261;50.356;10.340;2022-10-31T15:04:04;15.20;99.90
27922;DHT22;15261;50.356;10.340;2022-10-31T15:06:41;15.10;99.90
27922;DHT22;15261;50.356;10.340;2022-10-31T15:09:25;15.10;99.90
27922;DHT22;15261;50.356;10.340;2022-10-31T15:11:51;15.10;99.90
27922;DHT22;15261;50.356;10.340;2022-10-31T15:14:22;15.00;99.90
27922;DHT22;15261;50.356;10.340;2022-10-31T15:16:49;15.00;99.90
27922;DHT22;15261;50.356;10.340;2022-10-31T15:19:21;15.00;99.90
27922;DHT22;15261;50.356;10.340;2022-10-31T15:21:51;14.90;99.90
27922;DHT22;15261;50.356;10.340;2022-10-31T15:24:17;14.90;99.90
27922;DHT22;15261;50.356;10.340;2022-10-31T15:26:53;14.80;99.90
27922;DHT22;15261;50.356;10.340;2022-10-31T15:29:23;14.70;99.90
27922;DHT22;15261;50.356;10.340;2022-10-31T15:34:21;14.60;99.90
27922;DHT22;15261;50.356;10.340;2022-10-31T15:36:48;14.50;99.90
27922;DHT22;15261;50.356;10.340;2022-10-31T15:39:15;14.50;99.90
27922;DHT22;15261;50.356;10.340;2022-10-31T15:41:55;14.50;99.90
27922;DHT22;15261;50.356;10.340;2022-10-31T15:44:28;14.50;99.90
27922;DHT22;15261;50.356;10.340;2022-10-31T15:47:05;14.40;99.90
27922;DHT22;15261;50.356;10.340;2022-10-31T15:51:57;14.30;99.90
27922;DHT22;15261;50.356;10.340;2022-10-31T15:54:28;14.30;99.90
27922;DHT22;15261;50.356;10.340;2022-10-31T15:56:53;14.20;99.90
27922;DHT22;15261;50.356;10.340;2022-10-31T15:59:23;14.20;99.90
27922;DHT22;15261;50.356;10.340;2022-10-31T16:02:00;14.10;99.90
27922;DHT22;15261;50.356;10.340;2022-10-31T16:04:26;14.10;99.90
27922;DHT22;15261;50.356;10.340;2022-10-31T16:07:02;14.00;99.90
27922;DHT22;15261;50.356;10.340;2022-10-31T16:09:28;14.00;99.90
27922;DHT22;15261;50.356;10.340;2022-10-31T16:11:56;13.90;99.90
27922;DHT22;15261;50.356;10.340;2022-10-31T16:14:26;13.80;99.90
27922;DHT22;15261;50.356;10.340;2022-10-31T16:16:55;13.80;99.90
27922;DHT22;15261;50.356;10.340;2022-10-31T16:21:55;13.80;99.90
27922;DHT22;15261;50.356;10.340;2022-10-31T16:24:32;13.80;99.90
27922;DHT22;15261;50.356;10.340;2022-10-31T16:27:04;13.80;99.90
27922;DHT22;15261;50.356;10.340;2022-10-31T16:29:39;13.70;99.90
27922;DHT22;15261;50.356;10.340;2022-10-31T16:32:34;13.70;99.90
27922;DHT22;15261;50.356;10.340;2022-10-31T16:37:38;13.60;99.90
27922;DHT22;15261;50.356;10.340;2022-10-31T16:40:04;13.70;99.90
27922;DHT22;15261;50.356;10.340;2022-10-31T16:42:29;13.60;99.90
27922;DHT22;15261;50.356;10.340;2022-10-31T16:44:55;13.60;99.90
27922;DHT22;15261;50.356;10.340;2022-10-31T16:47:21;13.50;99.90
27922;DHT22;15261;50.356;10.340;2022-10-31T16:49:48;13.50;99.90
27922;DHT22;15261;50.356;10.340;2022-10-31T16:52:15;13.40;99.90
27922;DHT22;15261;50.356;10.340;2022-10-31T16:54:41;13.40;99.90
27922;DHT22;15261;50.356;10.340;2022-10-31T16:57:06;13.30;99.90
27922;DHT22;15261;50.356;10.340;2022-10-31T16:59:36;13.20;99.90
27922;DHT22;15261;50.356;10.340;2022-10-31T17:02:08;13.10;99.90
27922;DHT22;15261;50.356;10.340;2022-10-31T17:07:41;12.90;99.90
27922;DHT22;15261;50.356;10.340;2022-10-31T17:10:38;12.80;99.90
27922;DHT22;15261;50.356;10.340;2022-10-31T17:13:06;12.70;99.90
27922;DHT22;15261;50.356;10.340;2022-10-31T17:15:52;12.70;99.90
27922;DHT22;15261;50.356;10.340;2022-10-31T17:18:19;12.60;99.90
27922;DHT22;15261;50.356;10.340;2022-10-31T17:20:46;12.50;99.90
27922;DHT22;15261;50.356;10.340;2022-10-31T17:23:13;12.50;99.90
27922;DHT22;15261;50.356;10.340;2022-10-31T17:29:01;12.40;99.90
27922;DHT22;15261;50.356;10.340;2022-10-31T17:31:32;12.30;99.90
27922;DHT22;15261;50.356;10.340;2022-10-31T17:33:59;12.30;99.90
27922;DHT22;15261;50.356;10.340;2022-10-31T17:36:25;12.30;99.90
27922;DHT22;15261;50.356;10.340;2022-10-31T17:38:51;12.20;99.90
27922;DHT22;15261;50.356;10.340;2022-10-31T17:41:54;12.10;99.90
27922;DHT22;15261;50.356;10.340;2022-10-31T17:44:19;12.10;99.90
27922;DHT22;15261;50.356;10.340;2022-10-31T17:46:45;12.10;99.90
27922;DHT22;15261;50.356;10.340;2022-10-31T17:49:11;12.10;99.90
27922;DHT22;15261;50.356;10.340;2022-10-31T17:51:37;12.10;99.90
27922;DHT22;15261;50.356;10.340;2022-10-31T17:54:03;12.10;99.90
27922;DHT22;15261;50.356;10.340;2022-10-31T17:56:30;12.20;99.90
27922;DHT22;15261;50.356;10.340;2022-10-31T17:58:55;12.20;99.90
27922;DHT22;15261;50.356;10.340;2022-10-31T18:01:27;12.30;99.90
27922;DHT22;15261;50.356;10.340;2022-10-31T18:03:53;12.40;99.90
27922;DHT22;15261;50.356;10.340;2022-10-31T18:06:40;12.40;99.90
27922;DHT22;15261;50.356;10.340;2022-10-31T18:09:06;12.40;99.90
27922;DHT22;15261;50.356;10.340;2022-10-31T18:11:32;12.40;99.90
27922;DHT22;15261;50.356;10.340;2022-10-31T18:13:58;12.30;99.90
27922;DHT22;15261;50.356;10.340;2022-10-31T18:16:25;12.30;99.90
27922;DHT22;15261;50.356;10.340;2022-10-31T18:18:55;12.30;99.90
27922;DHT22;15261;50.356;10.340;2022-10-31T18:21:24;12.20;99.90
27922;DHT22;15261;50.356;10.340;2022-10-31T18:24:05;12.20;99.90
27922;DHT22;15261;50.356;10.340;2022-10-31T18:26:31;12.10;99.90
27922;DHT22;15261;50.356;10.340;2022-10-31T18:28:57;12.00;99.90
27922;DHT22;15261;50.356;10.340;2022-10-31T18:31:23;12.00;99.90
27922;DHT22;15261;50.356;10.340;2022-10-31T18:33:54;12.00;99.90
27922;DHT22;15261;50.356;10.340;2022-10-31T18:36:21;12.10;99.90
27922;DHT22;15261;50.356;10.340;2022-10-31T18:38:46;12.10;99.90
27922;DHT22;15261;50.356;10.340;2022-10-31T18:41:13;12.20;99.90
27922;DHT22;15261;50.356;10.340;2022-10-31T18:43:51;12.20;99.90
27922;DHT22;15261;50.356;10.340;2022-10-31T18:46:20;12.20;99.90
27922;DHT22;15261;50.356;10.340;2022-10-31T18:48:46;12.30;99.90
27922;DHT22;15261;50.356;10.340;2022-10-31T18:51:14;12.30;99.90
27922;DHT22;15261;50.356;10.340;2022-10-31T18:53:44;12.40;99.90
27922;DHT22;15261;50.356;10.340;2022-10-31T18:56:13;12.30;99.90
27922;DHT22;15261;50.356;10.340;2022-10-31T18:58:39;12.30;99.90
27922;DHT22;15261;50.356;10.340;2022-10-31T19:01:09;12.40;99.90
27922;DHT22;15261;50.356;10.340;2022-10-31T19:03:37;12.40;99.90
27922;DHT22;15261;50.356;10.340;2022-10-31T19:06:04;12.40;99.90
27922;DHT22;15261;50.356;10.340;2022-10-31T19:08:30;12.50;99.90
27922;DHT22;15261;50.356;10.340;2022-10-31T19:11:05;12.50;99.90
27922;DHT22;15261;50.356;10.340;2022-10-31T19:13:33;12.40;99.90
27922;DHT22;15261;50.356;10.340;2022-10-31T19:19:27;12.30;99.90
27922;DHT22;15261;50.356;10.340;2022-10-31T19:21:53;12.30;99.90
27922;DHT22;15261;50.356;10.340;2022-10-31T19:24:18;12.30;99.90
27922;DHT22;15261;50.356;10.340;2022-10-31T19:26:44;12.30;99.90
27922;DHT22;15261;50.356;10.340;2022-10-31T19:29:09;12.30;99.90
27922;DHT22;15261;50.356;10.340;2022-10-31T19:31:37;12.20;99.90